Aeroporto :
LOGIN :

Iscrizione | Disclaimer

   EN    FR    IT 

 










Sommario :    VFR   VFR Marginale   IFR   IFR Intensivo   IFR Molto Intensivo
Visibilità : 
Base nubi : 
>= 8 km
>= 3000ft
5 / 8 km
1000 / 3000 ft
1500m / 5 km
500 / 1000 ft
800 / 1500m
200 / 500 ft
< 800m
< 200 ft
Simboli :   Temporali  Nebbia  Neve Forte  Precipitazioni Forti  Vento > 20 kt
SIGMETs :   Varie  Temporali  Ghiacco  Turbolenza  Onda orograficha  Ceneri Vulcaniche






- Altitudine del aeroporto : 386 ft
- Codice IATA : QOE


ETNN - Nörvenich Airforce Base

ULTIMO METAR :
  • 062020Z 29006KT 9999 FEW090 15/05 Q1025 BLU+

METARs OBSOLETI :
  • 061920Z 23006KT 9999 FEW090 18/01 Q1023 BLU+
  • 061820Z 21005KT 9999 FEW090 17/02 Q1022 BLU+FCST CANCEL

TAF AMD TAF ETNN
Valido dal 06 a 14 ore il 06 a 23 ore UTC


061841Z 0614/0623 22010G20KT 9999 NSW SKC
BECMG 0616/0618 24007KT 9999 NSW SCT080
PROB30 0622/0623 26003KT 6000 -RADZ SCT020 BKN040 CANCEL BY ETGL



MetMap, La meteo Aeronautica in un colpo d'occhio ! - Copyright ORBIFLY Dicembre 2007 - Disclaimer

ORBIFLY MET'MAP TEAM :

Programmazione e sviluppo : Alexandra Zaïnal
Concezione : Baudouin d'Aumeries
Aiuto per la programmazione : Marc-Olivier Méhu
Supporto tecnico e logistico : Manuel Goepfert
Aiuto per la traduzione : Arnaldo La Scala

Contatto : metmap@orbifly.com




FONTI E CREDITI :

   NOAA